Time;durP1;ratioP1;P1;durP2;ratioP2;P2;SDS_P1;SDS_P2;PMS_P1;PMS_P2;Temp;Humidity;BMP_temperature;BMP_pressure;BME280_temperature;BME280_humidity;BME280_pressure;Samples;Min_cycle;Max_cycle;Signal;HPM_P1;HPM_P2
2021/04/08 00:00:47;;;;;;;21.23;11.03;;;;;;;-0.82;73.79;97757.03;1817084;79;21133;-74
2021/04/08 00:03:13;;;;;;;16.85;9.05;;;;;;;-0.82;73.62;97749.05;1817046;78;21098;-74
2021/04/08 00:05:39;;;;;;;16.40;9.03;;;;;;;-0.80;73.53;97755.77;1817056;79;21019;-74
2021/04/08 00:08:06;;;;;;;14.60;8.28;;;;;;;-0.78;73.39;97762.21;1817063;78;21103;-74
2021/04/08 00:10:32;;;;;;;18.20;8.10;;;;;;;-0.78;73.42;97757.70;1817084;79;21189;-74
2021/04/08 00:12:58;;;;;;;17.17;9.40;;;;;;;-0.76;73.35;97758.33;1817075;79;21425;-74
2021/04/08 00:15:24;;;;;;;21.80;11.78;;;;;;;-0.78;73.28;97758.22;1817070;79;21484;-74
2021/04/08 00:17:50;;;;;;;31.25;11.95;;;;;;;-0.80;73.32;97759.77;1817150;79;21126;-74
2021/04/08 00:20:20;;;;;;;22.67;10.15;;;;;;;-0.79;73.22;97761.39;1817149;78;21019;-74
2021/04/08 00:22:47;;;;;;;22.50;10.70;;;;;;;-0.82;73.17;97757.84;1816338;79;21196;-74
2021/04/08 00:25:14;;;;;;;20.60;9.93;;;;;;;-0.85;73.29;97762.27;1817080;79;21428;-74
2021/04/08 00:27:42;;;;;;;27.32;10.98;;;;;;;-0.87;73.46;97762.45;1817147;78;21425;-74
2021/04/08 00:30:09;;;;;;;21.85;9.73;;;;;;;-0.88;73.43;97764.81;1817021;79;21162;-74
2021/04/08 00:32:35;;;;;;;20.02;9.95;;;;;;;-0.90;73.47;97763.41;1817058;79;21084;-74
2021/04/08 00:35:02;;;;;;;15.32;7.80;;;;;;;-0.92;73.50;97763.62;1817063;78;21142;-74
2021/04/08 00:37:29;;;;;;;17.75;9.13;;;;;;;-0.88;73.38;97763.48;1816957;78;21032;-74
2021/04/08 00:39:55;;;;;;;18.85;9.45;;;;;;;-0.86;73.41;97758.77;1817058;78;21119;-74
2021/04/08 00:42:22;;;;;;;27.20;10.90;;;;;;;-0.83;73.31;97756.73;1816907;77;21456;-74
2021/04/08 00:44:48;;;;;;;21.05;9.13;;;;;;;-0.83;73.32;97761.53;1787794;79;21083;-74
2021/04/08 00:47:14;;;;;;;15.78;8.55;;;;;;;-0.83;73.21;97748.75;1817134;78;21189;-74
2021/04/08 00:49:40;;;;;;;15.53;7.78;;;;;;;-0.83;73.34;97754.88;1816992;79;21130;-74
2021/04/08 00:52:07;;;;;;;11.85;7.75;;;;;;;-0.82;73.24;97755.19;1817097;79;21106;-74
2021/04/08 00:54:33;;;;;;;20.50;9.73;;;;;;;-0.82;73.40;97753.04;1787425;79;21543;-74
2021/04/08 00:56:59;;;;;;;15.65;9.45;;;;;;;-0.81;73.29;97757.33;1787501;79;21003;-74
2021/04/08 00:59:25;;;;;;;15.53;7.05;;;;;;;-0.81;73.26;97768.78;1761847;79;21206;-74
2021/04/08 01:01:51;;;;;;;14.90;8.88;;;;;;;-0.81;73.23;97769.30;1787308;79;21031;-74
2021/04/08 01:04:18;;;;;;;14.80;7.25;;;;;;;-0.83;73.20;97771.36;1817025;79;21103;-74
2021/04/08 01:06:44;;;;;;;18.45;8.10;;;;;;;-0.83;73.20;97774.84;1817083;79;21178;-74
2021/04/08 01:09:10;;;;;;;18.32;7.17;;;;;;;-0.82;73.12;97776.47;1787464;79;21099;-74
2021/04/08 01:11:36;;;;;;;15.32;7.08;;;;;;;-0.83;73.11;97777.50;1817064;79;21263;-74
2021/04/08 01:14:02;;;;;;;16.25;8.13;;;;;;;-0.82;73.06;97779.64;1817080;79;21110;-74
2021/04/08 01:16:48;;;;;;;16.48;7.67;;;;;;;-0.83;73.15;97782.82;1816934;79;21067;-74
2021/04/08 01:19:49;;;;;;;20.12;8.70;;;;;;;-0.84;73.16;97789.17;1817126;79;21083;-74
2021/04/08 01:22:40;;;;;;;15.50;7.42;;;;;;;-0.83;73.16;97788.66;1816995;79;21465;-73
2021/04/08 01:25:46;;;;;;;15.40;7.60;;;;;;;-0.83;73.16;97786.81;1817007;79;21197;-74
2021/04/08 01:28:32;;;;;;;19.32;9.25;;;;;;;-0.81;73.18;97783.41;1816846;79;21110;-73
2021/04/08 01:31:05;;;;;;;13.08;7.10;;;;;;;-0.77;73.02;97785.13;1817020;79;21031;-73
2021/04/08 01:33:35;;;;;;;12.53;6.28;;;;;;;-0.73;72.82;97784.50;1816954;78;21119;-74
2021/04/08 01:36:06;;;;;;;13.85;7.08;;;;;;;-0.75;73.00;97785.75;1817036;79;21016;-74
2021/04/08 01:38:41;;;;;;;11.22;6.12;;;;;;;-0.74;73.00;97782.06;1817088;78;21184;-73
2021/04/08 01:41:07;;;;;;;14.65;7.90;;;;;;;-0.75;72.98;97782.58;1816925;79;21127;-74
2021/04/08 01:43:40;;;;;;;12.43;5.58;;;;;;;-0.74;73.08;97785.53;1817038;77;21685;-74
2021/04/08 01:46:07;;;;;;;12.47;6.10;;;;;;;-0.72;72.98;97782.14;1817018;79;21083;-74
2021/04/08 01:48:33;;;;;;;15.95;6.72;;;;;;;-0.69;72.97;97782.22;1787942;79;21126;-74
2021/04/08 01:51:01;;;;;;;9.20;5.40;;;;;;;-0.70;73.09;97782.73;1816996;79;21184;-74
2021/04/08 01:53:27;;;;;;;12.45;6.62;;;;;;;-0.69;73.00;97786.20;1816962;78;21098;-74
2021/04/08 01:55:58;;;;;;;10.72;6.12;;;;;;;-0.69;72.85;97791.53;1816994;78;21146;-74
2021/04/08 01:58:26;;;;;;;11.80;5.92;;;;;;;-0.69;72.88;97784.88;1817039;78;21103;-73
2021/04/08 02:00:52;;;;;;;18.55;8.83;;;;;;;-0.67;72.81;97792.97;1816974;79;21484;-73
2021/04/08 02:03:18;;;;;;;18.55;8.78;;;;;;;-0.67;72.69;97789.50;1817007;79;21217;-73
2021/04/08 02:05:45;;;;;;;17.73;8.95;;;;;;;-0.67;72.63;97785.50;1787458;79;21125;-73
2021/04/08 02:08:12;;;;;;;18.20;9.40;;;;;;;-0.67;72.64;97785.50;1817012;79;21411;-73
2021/04/08 02:10:39;;;;;;;16.62;8.60;;;;;;;-0.70;72.58;97784.06;1816920;79;21063;-73
2021/04/08 02:13:07;;;;;;;26.27;14.43;;;;;;;-0.75;72.58;97785.75;1817114;78;21079;-73
2021/04/08 02:15:34;;;;;;;11.40;8.05;;;;;;;-0.82;72.63;97782.30;1817173;79;21202;-73
2021/04/08 02:18:00;;;;;;;16.40;10.82;;;;;;;-0.83;72.68;97782.00;1816917;79;21032;-73
2021/04/08 02:20:31;;;;;;;12.47;8.58;;;;;;;-0.87;72.70;97773.61;1817026;79;21456;-73
2021/04/08 02:23:02;;;;;;;10.15;7.10;;;;;;;-0.89;72.81;97775.16;1817100;79;21500;-74
2021/04/08 02:25:33;;;;;;;12.23;6.97;;;;;;;-0.88;72.86;97780.78;1816972;79;21043;-72
2021/04/08 02:28:07;;;;;;;14.53;7.85;;;;;;;-0.86;72.83;97778.72;1817070;79;22168;-73
2021/04/08 02:30:45;;;;;;;11.68;6.83;;;;;;;-0.83;72.78;97781.48;1816923;79;21118;-74
2021/04/08 02:33:01;;;;;;;11.30;6.50;;;;;;;-0.79;72.68;97778.69;1812542;79;21409;-74
2021/04/08 02:35:27;;;;;;;13.98;8.80;;;;;;;-0.78;72.69;97780.32;1816997;79;21173;-74
2021/04/08 02:37:53;;;;;;;15.63;9.35;;;;;;;-0.76;72.67;97779.61;1817000;79;21102;-74
2021/04/08 02:40:21;;;;;;;16.70;8.18;;;;;;;-0.72;72.52;97777.33;1817062;79;21229;-74
2021/04/08 02:42:48;;;;;;;9.03;6.45;;;;;;;-0.68;72.45;97782.03;1814808;77;21107;-74
2021/04/08 02:45:14;;;;;;;15.15;8.43;;;;;;;-0.66;72.43;97789.27;1812127;79;21047;-74
2021/04/08 02:47:40;;;;;;;11.15;6.50;;;;;;;-0.66;72.39;97785.28;1812301;79;21444;-74
2021/04/08 02:50:08;;;;;;;10.25;6.10;;;;;;;-0.63;72.46;97794.67;1812291;79;21126;-74
2021/04/08 02:52:58;;;;;;;12.13;6.70;;;;;;;-0.65;72.28;97792.75;1812339;79;22024;-74
2021/04/08 02:55:31;;;;;;;8.68;5.92;;;;;;;-0.67;72.34;97797.48;1791802;79;21091;-73
2021/04/08 02:58:03;;;;;;;17.98;8.18;;;;;;;-0.68;72.29;97797.18;1809950;79;21115;-74
2021/04/08 03:00:33;;;;;;;13.88;7.22;;;;;;;-0.69;72.28;97793.67;1812249;79;21096;-74
2021/04/08 03:03:08;;;;;;;16.80;7.62;;;;;;;-0.67;72.30;97792.97;1812267;79;21067;-74
2021/04/08 03:05:40;;;;;;;15.45;9.55;;;;;;;-0.70;72.19;97794.70;1812256;79;21180;-74
2021/04/08 03:08:10;;;;;;;19.35;9.95;;;;;;;-0.72;72.17;97794.11;1812205;79;21091;-73
2021/04/08 03:10:37;;;;;;;19.48;11.60;;;;;;;-0.80;72.18;97798.86;1812368;79;21503;-73
2021/04/08 03:13:03;;;;;;;17.73;10.50;;;;;;;-0.86;72.29;97797.86;1812350;79;21524;-73
2021/04/08 03:15:33;;;;;;;18.23;12.00;;;;;;;-0.90;72.39;97795.33;1812336;79;21059;-73
2021/04/08 03:18:00;;;;;;;17.42;10.03;;;;;;;-0.96;72.32;97797.50;1812179;79;21392;-73
2021/04/08 03:20:27;;;;;;;20.32;12.43;;;;;;;-1.08;72.56;97796.03;1812212;79;21080;-73
2021/04/08 03:22:53;;;;;;;21.75;11.90;;;;;;;-1.17;72.57;97795.45;1812179;79;21114;-73
2021/04/08 03:25:19;;;;;;;16.25;9.55;;;;;;;-1.23;72.72;97790.14;1787129;79;21027;-73
2021/04/08 03:27:45;;;;;;;19.10;10.25;;;;;;;-1.29;72.87;97790.97;1812348;79;21484;-73
2021/04/08 03:30:13;;;;;;;44.73;18.17;;;;;;;-1.33;72.96;97789.26;1787234;79;21272;-73
2021/04/08 03:32:39;;;;;;;43.05;20.60;;;;;;;-1.33;72.85;97794.58;1812129;79;21056;-73
2021/04/08 03:35:10;;;;;;;23.45;10.38;;;;;;;-1.36;72.97;97796.33;1812323;79;21127;-73
2021/04/08 03:37:36;;;;;;;22.67;11.70;;;;;;;-1.44;73.05;97787.25;1812312;79;21023;-74
2021/04/08 03:40:04;;;;;;;45.80;19.67;;;;;;;-1.55;73.17;97797.98;1812345;78;21142;-73
2021/04/08 03:42:30;;;;;;;67.62;27.70;;;;;;;-1.61;73.73;97800.17;1813069;78;21265;-73
2021/04/08 03:44:57;;;;;;;33.20;15.53;;;;;;;-1.59;73.61;97794.64;1817137;79;21071;-73
2021/04/08 03:47:23;;;;;;;62.45;25.00;;;;;;;-1.66;73.57;97800.48;1817093;79;21153;-74
2021/04/08 03:49:50;;;;;;;71.20;31.85;;;;;;;-1.66;73.72;97807.12;1817144;79;21548;-73
2021/04/08 03:52:16;;;;;;;68.25;25.25;;;;;;;-1.65;73.82;97802.92;1787817;79;21079;-73
2021/04/08 03:54:42;;;;;;;61.48;23.35;;;;;;;-1.65;73.80;97798.12;1817176;79;21188;-74
2021/04/08 03:57:16;;;;;;;84.10;33.42;;;;;;;-1.68;74.03;97805.19;1817086;79;21111;-73
2021/04/08 03:59:46;;;;;;;111.47;40.50;;;;;;;-1.65;73.88;97804.77;1817242;79;21475;-73
2021/04/08 04:02:13;;;;;;;71.05;26.97;;;;;;;-1.60;73.85;97811.10;1817099;79;21480;-73
2021/04/08 04:04:40;;;;;;;52.60;22.65;;;;;;;-1.60;74.13;97812.43;1817045;78;21067;-73
2021/04/08 04:07:06;;;;;;;48.98;20.43;;;;;;;-1.58;73.88;97812.22;1817056;78;21182;-73
2021/04/08 04:09:32;;;;;;;51.58;23.73;;;;;;;-1.61;73.81;97809.98;1817023;79;21043;-73
2021/04/08 04:11:58;;;;;;;35.13;17.35;;;;;;;-1.65;74.19;97815.39;1817144;78;21408;-73
2021/04/08 04:14:27;;;;;;;38.83;19.92;;;;;;;-1.62;74.04;97817.14;1817028;79;21083;-73
2021/04/08 04:16:55;;;;;;;40.00;18.48;;;;;;;-1.61;74.33;97820.61;1817221;78;21111;-74
2021/04/08 04:19:23;;;;;;;41.55;19.25;;;;;;;-1.58;75.15;97819.67;1817019;79;21096;-74
2021/04/08 04:21:51;;;;;;;34.80;19.02;;;;;;;-1.56;75.96;97820.80;1816831;78;21083;-73
2021/04/08 04:24:17;;;;;;;47.03;20.88;;;;;;;-1.51;75.41;97807.71;1817071;78;21090;-74
2021/04/08 04:26:43;;;;;;;38.45;18.73;;;;;;;-1.42;75.11;97813.11;1817131;78;21138;-74
2021/04/08 04:29:11;;;;;;;46.35;21.05;;;;;;;-1.38;75.29;97818.30;1817071;78;21012;-74
2021/04/08 04:31:38;;;;;;;49.27;25.43;;;;;;;-1.25;74.80;97820.94;1817051;78;21978;-74
2021/04/08 04:34:08;;;;;;;57.50;26.37;;;;;;;-1.15;74.74;97824.48;1817053;79;21083;-74
2021/04/08 04:36:34;;;;;;;120.77;50.78;;;;;;;-1.08;74.43;97825.28;1817018;78;21111;-74
2021/04/08 04:39:01;;;;;;;119.53;52.03;;;;;;;-1.06;74.39;97822.41;1817121;79;21421;-74
2021/04/08 04:41:27;;;;;;;108.72;47.78;;;;;;;-1.02;74.33;97831.61;1817047;79;22163;-74
2021/04/08 04:43:54;;;;;;;41.95;19.20;;;;;;;-0.87;74.51;97830.81;1816944;79;21149;-74
2021/04/08 04:46:20;;;;;;;50.38;25.77;;;;;;;-0.68;74.18;97825.12;1816970;79;21015;-74
2021/04/08 04:48:46;;;;;;;66.22;32.50;;;;;;;-0.62;73.94;97830.39;1817021;79;21067;-74
2021/04/08 04:51:12;;;;;;;69.67;30.52;;;;;;;-0.62;73.77;97831.72;1817132;78;21019;-74
2021/04/08 04:53:38;;;;;;;75.70;35.30;;;;;;;-0.61;73.95;97833.34;1817118;79;21440;-74
2021/04/08 04:56:05;;;;;;;56.75;26.60;;;;;;;-0.58;73.95;97836.94;1817111;78;21464;-74
2021/04/08 04:58:32;;;;;;;32.63;14.58;;;;;;;-0.55;74.17;97844.19;1817036;79;21412;-74
2021/04/08 05:00:58;;;;;;;24.82;8.45;;;;;;;-0.49;74.50;97846.82;1817062;78;21039;-74
2021/04/08 05:03:24;;;;;;;12.78;7.85;;;;;;;-0.44;75.48;97850.16;1816998;79;21130;-74
2021/04/08 05:05:50;;;;;;;12.53;7.85;;;;;;;-0.39;75.50;97854.34;1817107;79;21066;-74
2021/04/08 05:08:16;;;;;;;10.75;6.87;;;;;;;-0.33;76.02;97857.48;1817037;79;21229;-74
2021/04/08 05:10:43;;;;;;;11.22;7.33;;;;;;;-0.30;76.91;97853.87;1817060;79;21556;-74
2021/04/08 05:13:09;;;;;;;15.20;7.58;;;;;;;-0.25;77.26;97859.09;1817045;79;21031;-74
2021/04/08 05:15:35;;;;;;;12.68;7.72;;;;;;;-0.20;77.25;97865.38;1817007;78;21091;-74
2021/04/08 05:18:01;;;;;;;11.22;8.23;;;;;;;-0.17;77.49;97866.79;1817130;78;21586;-74
2021/04/08 05:20:27;;;;;;;9.00;6.17;;;;;;;-0.12;78.03;97865.64;1817001;79;21281;-74
2021/04/08 05:22:54;;;;;;;8.55;6.00;;;;;;;-0.10;77.54;97872.89;1816951;79;21192;-74
2021/04/08 05:25:21;;;;;;;11.25;7.33;;;;;;;-0.09;78.12;97882.52;1816975;79;21023;-74
2021/04/08 05:27:47;;;;;;;8.20;5.25;;;;;;;-0.07;77.60;97885.80;1817030;78;21186;-74
2021/04/08 05:30:14;;;;;;;11.43;8.33;;;;;;;-0.01;77.62;97885.73;1817122;79;21020;-74
2021/04/08 05:32:40;;;;;;;11.25;8.30;;;;;;;-0.03;78.28;97887.80;1817010;79;21185;-74
2021/04/08 05:35:07;;;;;;;10.20;6.20;;;;;;;0.05;77.85;97897.39;1817029;78;21146;-74
2021/04/08 05:37:33;;;;;;;11.88;6.72;;;;;;;0.10;77.55;97897.58;1817099;79;21119;-74
2021/04/08 05:39:59;;;;;;;13.83;7.70;;;;;;;0.13;78.21;97901.65;1816955;79;21028;-74
2021/04/08 05:42:25;;;;;;;7.42;5.50;;;;;;;0.14;78.19;97909.94;1817095;79;21122;-74
2021/04/08 05:44:51;;;;;;;11.05;5.78;;;;;;;0.14;78.53;97908.61;1816912;78;21198;-74
2021/04/08 05:47:18;;;;;;;10.32;5.58;;;;;;;0.11;79.16;97909.05;1817040;79;21141;-74
2021/04/08 05:49:44;;;;;;;12.82;7.33;;;;;;;0.12;78.94;97918.67;1816993;79;21107;-74
2021/04/08 05:52:10;;;;;;;10.18;6.70;;;;;;;0.07;79.27;97917.97;1816976;78;21109;-74
2021/04/08 05:54:36;;;;;;;10.03;6.67;;;;;;;0.08;79.43;97926.27;1816991;79;21436;-74
2021/04/08 05:57:03;;;;;;;10.98;5.72;;;;;;;0.11;79.35;97931.18;1817018;79;21393;-74
2021/04/08 05:59:29;;;;;;;9.68;6.20;;;;;;;0.15;79.82;97932.37;1816987;78;21436;-74
2021/04/08 06:01:55;;;;;;;11.70;8.65;;;;;;;0.19;79.61;97936.77;1816948;79;21059;-74
2021/04/08 06:04:21;;;;;;;10.72;6.75;;;;;;;0.27;79.46;97934.66;1816987;79;21007;-74
2021/04/08 06:06:47;;;;;;;19.48;13.43;;;;;;;0.28;79.98;97938.14;1817123;79;21480;-74
2021/04/08 06:09:13;;;;;;;13.25;7.47;;;;;;;0.34;79.35;97941.25;1817077;79;22026;-74
2021/04/08 06:11:39;;;;;;;12.28;7.60;;;;;;;0.38;79.96;97945.66;1816916;79;21040;-74
2021/04/08 06:14:06;;;;;;;11.95;7.05;;;;;;;0.43;79.71;97952.50;1816984;79;21079;-74
2021/04/08 06:16:32;;;;;;;16.82;7.75;;;;;;;0.50;79.28;97958.06;1816999;79;21068;-74
2021/04/08 06:18:58;;;;;;;10.53;6.47;;;;;;;0.55;79.18;97960.09;1816988;78;21088;-74
2021/04/08 06:21:24;;;;;;;13.08;7.72;;;;;;;0.60;79.36;97968.27;1817059;79;21177;-74
2021/04/08 06:23:53;;;;;;;19.07;9.08;;;;;;;0.64;78.92;97972.13;1817165;79;21413;-74
2021/04/08 06:26:20;;;;;;;16.15;9.73;;;;;;;0.61;78.98;97969.08;1787579;79;21032;-74
2021/04/08 06:28:46;;;;;;;15.80;8.05;;;;;;;0.59;78.96;97969.80;1817156;79;21111;-75
2021/04/08 06:31:12;;;;;;;23.70;12.03;;;;;;;0.61;79.41;97986.41;1817153;78;21055;-73
2021/04/08 06:33:38;;;;;;;16.73;10.13;;;;;;;0.62;79.36;97982.20;1817128;79;21265;-74
2021/04/08 06:36:08;;;;;;;24.85;14.15;;;;;;;0.64;78.94;97985.97;1817094;78;21098;-73
2021/04/08 06:38:34;;;;;;;17.85;10.23;;;;;;;0.68;79.16;97990.64;1817139;79;21031;-73
2021/04/08 06:41:00;;;;;;;17.10;9.08;;;;;;;0.76;79.03;97989.55;1817212;78;21020;-73
2021/04/08 06:43:27;;;;;;;25.92;11.80;;;;;;;0.82;78.91;97988.70;1817207;79;21171;-74
2021/04/08 06:45:53;;;;;;;19.00;9.95;;;;;;;0.92;78.81;97990.87;1817817;79;21189;-73
2021/04/08 06:48:23;;;;;;;23.85;12.93;;;;;;;1.03;78.67;97996.84;1817702;79;21087;-73
2021/04/08 06:50:51;;;;;;;22.25;11.05;;;;;;;1.10;78.40;97999.73;1816980;79;21079;-74
2021/04/08 06:53:17;;;;;;;15.85;10.30;;;;;;;1.07;78.11;98005.52;1817690;78;21066;-74
2021/04/08 06:55:43;;;;;;;14.38;8.48;;;;;;;1.06;78.36;98002.55;1817828;79;21147;-74
2021/04/08 06:58:09;;;;;;;15.18;9.05;;;;;;;1.07;78.32;98004.18;1817656;78;21179;-74
2021/04/08 07:00:36;;;;;;;17.00;9.35;;;;;;;1.06;78.37;98001.22;1817629;79;21064;-74
2021/04/08 07:03:04;;;;;;;9.90;6.50;;;;;;;1.07;78.34;98011.37;1817685;79;21115;-74
2021/04/08 07:05:30;;;;;;;16.15;7.83;;;;;;;1.12;78.33;98028.89;1792323;79;21078;-74
2021/04/08 07:07:56;;;;;;;25.65;12.18;;;;;;;1.21;77.92;98018.75;1817820;79;21068;-74
2021/04/08 07:10:25;;;;;;;47.03;20.48;;;;;;;1.22;77.83;98029.73;1817752;78;21193;-74
2021/04/08 07:12:55;;;;;;;99.05;43.73;;;;;;;1.20;77.40;98036.63;1817608;79;21110;-74
2021/04/08 07:15:22;;;;;;;43.87;22.07;;;;;;;1.28;76.71;98044.84;1817769;78;21468;-73
2021/04/08 07:17:48;;;;;;;43.15;21.60;;;;;;;1.45;76.65;98049.92;1817767;79;21091;-73
2021/04/08 07:20:14;;;;;;;32.70;18.45;;;;;;;1.55;75.19;98043.58;1817688;78;21432;-74
2021/04/08 07:22:40;;;;;;;13.70;8.58;;;;;;;1.77;74.70;98046.61;1817758;78;21155;-73
2021/04/08 07:25:18;;;;;;;13.68;8.00;;;;;;;1.92;74.38;98055.08;1817628;78;21095;-73
2021/04/08 07:27:44;;;;;;;14.33;6.28;;;;;;;1.94;71.98;98059.68;1817756;79;21066;-74
2021/04/08 07:30:11;;;;;;;8.48;4.55;;;;;;;1.96;71.59;98060.78;1817721;79;21184;-74
2021/04/08 07:32:39;;;;;;;6.60;3.70;;;;;;;1.99;70.51;98064.37;1817714;79;21071;-74
2021/04/08 07:35:18;;;;;;;11.57;5.87;;;;;;;1.98;70.84;98064.89;1817808;79;21372;-74
2021/04/08 07:37:57;;;;;;;5.85;3.17;;;;;;;2.12;72.39;98080.23;1817766;79;21475;-73
2021/04/08 07:40:25;;;;;;;10.53;6.28;;;;;;;2.24;71.88;98082.98;1817777;79;21147;-73
2021/04/08 07:42:51;;;;;;;8.35;4.40;;;;;;;2.22;72.27;98087.23;1817733;79;21083;-73
2021/04/08 07:45:33;;;;;;;12.20;8.65;;;;;;;2.36;71.73;98094.55;1813097;77;21027;-73
2021/04/08 07:48:03;;;;;;;10.55;7.10;;;;;;;2.39;71.30;98099.96;1812241;79;21241;-74
2021/04/08 07:50:30;;;;;;;10.85;6.65;;;;;;;2.45;71.64;98099.07;1811209;79;21080;-74
2021/04/08 07:52:57;;;;;;;12.55;7.65;;;;;;;2.47;68.75;98113.84;1812240;79;21114;-73
2021/04/08 07:55:36;;;;;;;14.10;7.50;;;;;;;2.60;70.44;98105.37;1812156;79;21126;-74
2021/04/08 07:58:08;;;;;;;16.12;9.93;;;;;;;2.68;70.07;98105.87;1812526;79;21749;-74
2021/04/08 08:00:52;;;;;;;17.52;10.43;;;;;;;2.88;69.47;98118.97;1812150;79;21186;-74
2021/04/08 08:03:26;;;;;;;11.78;8.45;;;;;;;2.96;68.21;98112.47;1812113;79;21099;-74
2021/04/08 08:08:49;;;;;;;19.80;9.50;;;;;;;3.35;67.82;98114.55;1852414;77;23200;-73
2021/04/08 08:11:20;;;;;;;;;;;;;;;3.33;67.82;98122.01;1795391;78;21469;-74
2021/04/08 08:13:48;;;;;;;;;;;;;;;3.31;66.90;98116.04;1777244;80;21015;-74
2021/04/08 08:16:24;;;;;;;10.72;5.33;;;;;;;3.25;67.89;98118.85;1776690;80;20143;-73
2021/04/08 08:18:51;;;;;;;9.48;5.55;;;;;;;3.07;66.55;98131.76;1776774;80;21468;-75
2021/04/08 08:21:21;;;;;;;38.92;14.07;;;;;;;2.82;65.90;98134.09;1776720;80;21107;-74
2021/04/08 08:23:50;;;;;;;12.45;7.15;;;;;;;2.87;66.98;98136.07;1776962;80;21468;-74
2021/04/08 08:26:37;;;;;;;13.43;7.85;;;;;;;2.87;66.01;98148.64;1776783;80;21197;-74
2021/04/08 08:29:13;;;;;;;14.47;7.85;;;;;;;2.73;64.86;98147.98;1776734;80;21000;-74
2021/04/08 08:31:57;;;;;;;68.12;27.20;;;;;;;2.69;66.48;98143.63;1776682;80;21060;-74
2021/04/08 08:34:33;;;;;;;17.15;8.55;;;;;;;2.77;67.24;98146.51;1776782;80;21154;-74
2021/04/08 08:37:11;;;;;;;18.55;8.80;;;;;;;2.82;67.28;98155.50;1776720;80;21012;-74
2021/04/08 08:39:41;;;;;;;51.90;19.90;;;;;;;2.76;66.03;98159.59;1776870;80;21192;-73
2021/04/08 08:42:12;;;;;;;23.70;11.55;;;;;;;2.81;67.00;98148.48;1776783;80;21122;-73
2021/04/08 08:44:39;;;;;;;15.95;8.60;;;;;;;2.90;66.68;98159.70;1776846;80;21132;-74
2021/04/08 08:47:29;;;;;;;16.17;7.30;;;;;;;2.90;64.69;98158.36;1746274;80;21098;-72
2021/04/08 08:50:04;;;;;;;20.00;7.35;;;;;;;3.08;65.02;98163.69;1776869;80;21496;-73
2021/04/08 08:52:37;;;;;;;26.52;11.70;;;;;;;3.34;66.23;98161.14;1776696;80;21192;-74
2021/04/08 08:55:09;;;;;;;22.50;13.03;;;;;;;3.61;65.81;98164.20;1776712;80;21150;-74
2021/04/08 08:57:37;;;;;;;18.25;9.08;;;;;;;3.79;65.05;98169.99;1776420;80;21090;-73
2021/04/08 09:00:05;;;;;;;13.18;7.53;;;;;;;3.81;64.91;98171.09;1776773;80;21536;-73
2021/04/08 09:02:33;;;;;;;16.05;7.30;;;;;;;3.70;62.57;98171.91;1776925;80;21041;-73
2021/04/08 09:05:00;;;;;;;10.78;5.45;;;;;;;3.82;64.26;98179.42;1776791;80;22114;-73
2021/04/08 09:07:26;;;;;;;13.18;6.17;;;;;;;3.69;60.24;98176.45;1783831;80;21102;-73
2021/04/08 09:09:56;;;;;;;11.75;7.17;;;;;;;3.53;59.71;98180.63;1793371;79;21578;-73
2021/04/08 09:12:21;;;;;;;14.85;7.97;;;;;;;3.83;62.46;98184.55;1755576;81;21111;-74
2021/04/08 09:14:48;;;;;;;27.55;15.00;;;;;;;3.96;62.21;98182.99;1745503;81;21075;-73
2021/04/08 09:17:38;;;;;;;12.58;6.92;;;;;;;4.22;62.16;98178.20;1745555;81;21312;-73
2021/04/08 09:20:11;;;;;;;11.75;6.42;;;;;;;4.21;60.45;98177.92;1768454;81;21119;-73
2021/04/08 09:22:54;;;;;;;14.05;6.42;;;;;;;4.14;59.98;98174.53;1770918;81;21135;-74
2021/04/08 09:25:21;;;;;;;12.05;5.58;;;;;;;4.33;60.30;98187.28;1752711;81;21024;-74
2021/04/08 09:27:52;;;;;;;14.07;6.05;;;;;;;3.58;57.58;98188.77;1771022;81;21040;-74
2021/04/08 09:30:43;;;;;;;8.18;5.00;;;;;;;3.87;60.00;98195.64;1770921;81;21154;-73
2021/04/08 09:33:12;;;;;;;8.53;4.83;;;;;;;3.79;60.11;98204.02;1764170;81;21052;-73
2021/04/08 09:35:39;;;;;;;7.50;4.45;;;;;;;3.50;62.47;98226.61;1770919;81;21082;-74
2021/04/08 09:38:10;;;;;;;7.28;4.33;;;;;;;3.00;65.44;98238.16;1770885;81;21146;-74
2021/04/08 09:40:45;;;;;;;9.73;4.40;;;;;;;2.67;65.46;98238.55;1770923;81;21111;-74
2021/04/08 09:43:15;;;;;;;27.10;12.30;;;;;;;2.49;67.11;98240.19;1770915;81;21203;-73
2021/04/08 09:45:55;;;;;;;43.87;23.52;;;;;;;2.39;67.34;98246.54;1770950;81;21072;-74
2021/04/08 09:48:26;;;;;;;20.75;15.32;;;;;;;2.30;68.39;98254.55;1770309;81;21424;-73
2021/04/08 09:51:01;;;;;;;10.90;5.25;;;;;;;2.21;68.99;98269.25;1771022;81;21079;-74
2021/04/08 09:53:40;;;;;;;7.85;5.53;;;;;;;1.91;70.57;98268.59;1770318;81;21075;-74
2021/04/08 09:56:08;;;;;;;13.20;7.05;;;;;;;1.62;72.30;98260.70;1771024;81;21496;-73
2021/04/08 09:58:37;;;;;;;30.48;17.82;;;;;;;1.69;71.85;98270.80;1770809;81;21110;-73
2021/04/08 10:01:06;;;;;;;45.23;27.60;;;;;;;1.89;71.36;98263.98;1771133;80;21548;-74
2021/04/08 10:03:40;;;;;;;15.88;10.95;;;;;;;2.40;70.51;98267.45;1769568;81;21055;-74
2021/04/08 10:06:16;;;;;;;20.85;12.23;;;;;;;2.78;70.55;98257.86;1771003;81;21485;-73
2021/04/08 10:08:43;;;;;;;55.20;32.95;;;;;;;3.25;70.98;98256.25;1770618;81;22468;-73
2021/04/08 10:11:11;;;;;;;48.70;24.43;;;;;;;3.78;70.54;98256.82;1744789;81;21155;-73
2021/04/08 10:13:39;;;;;;;34.27;15.30;;;;;;;3.98;68.64;98255.68;1770971;81;21123;-73
2021/04/08 10:16:11;;;;;;;20.77;10.78;;;;;;;4.06;70.27;98248.11;1770924;81;21096;-73
2021/04/08 10:18:38;;;;;;;16.50;9.23;;;;;;;4.10;70.85;98249.30;1769720;81;21162;-73
2021/04/08 10:21:08;;;;;;;17.15;9.63;;;;;;;4.21;69.39;98254.36;1770904;81;21253;-73
2021/04/08 10:23:47;;;;;;;27.67;12.98;;;;;;;4.16;69.12;98253.70;1744655;81;21564;-73
2021/04/08 10:26:25;;;;;;;25.12;10.98;;;;;;;4.41;68.36;98257.50;1770898;81;21126;-74
2021/04/08 10:28:57;;;;;;;15.08;8.35;;;;;;;4.39;67.65;98262.82;1770057;81;21434;-74
2021/04/08 10:31:29;;;;;;;23.80;12.90;;;;;;;4.62;67.45;98265.50;1770831;81;21114;-73
2021/04/08 10:34:19;;;;;;;17.15;9.53;;;;;;;4.87;66.79;98257.67;1770912;81;21190;-73
2021/04/08 10:36:54;;;;;;;13.85;9.13;;;;;;;5.06;65.97;98268.56;1768560;81;21076;-73
2021/04/08 10:39:33;;;;;;;14.93;9.20;;;;;;;5.42;65.23;98254.47;1754969;81;21087;-74
2021/04/08 10:42:09;;;;;;;16.32;9.83;;;;;;;5.60;64.79;98257.76;1770860;81;21048;-73
2021/04/08 10:44:38;;;;;;;16.45;10.65;;;;;;;5.77;64.09;98258.31;1769630;81;21092;-74
2021/04/08 10:47:13;;;;;;;18.73;13.38;;;;;;;5.71;62.92;98259.28;1770897;81;21204;-74
2021/04/08 10:49:51;;;;;;;19.60;10.82;;;;;;;5.55;63.43;98260.88;1770959;81;21492;-73
2021/04/08 10:52:38;;;;;;;15.70;9.55;;;;;;;5.49;63.43;98263.20;1770999;81;21024;-74
2021/04/08 10:55:11;;;;;;;18.67;9.08;;;;;;;5.57;63.95;98264.98;1770880;81;21102;-72
2021/04/08 10:57:37;;;;;;;14.35;8.65;;;;;;;5.76;63.83;98273.64;1770965;81;21115;-73
2021/04/08 11:00:08;;;;;;;13.38;8.40;;;;;;;5.51;63.83;98278.55;1770889;81;21253;-73
2021/04/08 11:02:41;;;;;;;16.95;9.18;;;;;;;5.28;63.86;98284.83;1770849;81;21503;-72
2021/04/08 11:05:19;;;;;;;14.00;8.65;;;;;;;4.86;64.47;98293.63;1770905;81;21107;-74
2021/04/08 11:07:52;;;;;;;14.10;8.67;;;;;;;4.49;65.21;98300.61;1771101;80;21464;-73
2021/04/08 11:10:25;;;;;;;11.18;6.85;;;;;;;4.04;66.46;98309.73;1770979;81;21039;-74
2021/04/08 11:12:52;;;;;;;17.02;8.40;;;;;;;3.70;67.39;98333.54;1770889;81;21103;-73
2021/04/08 11:15:24;;;;;;;27.27;15.30;;;;;;;3.27;69.20;98324.32;1744901;81;21053;-73
2021/04/08 11:17:53;;;;;;;13.98;6.30;;;;;;;2.96;68.89;98328.79;1769591;81;21040;-72
2021/04/08 11:20:31;;;;;;;13.93;8.05;;;;;;;2.62;70.84;98324.01;1771039;81;21028;-73
2021/04/08 11:22:58;;;;;;;38.45;19.52;;;;;;;2.57;70.49;98326.55;1770998;81;21151;-73
2021/04/08 11:25:26;;;;;;;20.50;14.70;;;;;;;2.58;71.21;98323.64;1770941;81;21281;-73
2021/04/08 11:27:54;;;;;;;10.63;6.00;;;;;;;2.46;74.72;98346.27;1771007;81;21072;-73
2021/04/08 11:30:30;;;;;;;9.53;5.10;;;;;;;2.40;73.09;98353.04;1771073;81;21959;-74
2021/04/08 11:32:58;;;;;;;9.33;4.65;;;;;;;2.04;76.40;98367.08;1770825;81;21111;-74
2021/04/08 11:35:40;;;;;;;12.47;5.33;;;;;;;1.57;77.63;98381.23;1770840;81;21068;-74
2021/04/08 11:38:17;;;;;;;9.65;5.03;;;;;;;1.54;78.48;98374.48;1770853;81;21202;-74
2021/04/08 11:40:47;;;;;;;9.90;4.42;;;;;;;1.58;79.58;98377.53;1770809;81;21130;-73